createdAt,value
2023-05-11T00:02:01.229Z,10.50
2023-05-11T00:06:56.546Z,10.50
2023-05-11T00:11:53.234Z,10.50
2023-05-11T00:19:15.199Z,10.50
2023-05-11T00:21:42.348Z,10.50
2023-05-11T00:29:04.598Z,10.50
2023-05-11T00:36:27.365Z,10.50
2023-05-11T00:41:22.033Z,10.50
2023-05-11T00:51:14.145Z,10.50
2023-05-11T00:53:41.381Z,10.60
2023-05-11T00:56:09.138Z,10.50
2023-05-11T00:58:37.310Z,10.50
2023-05-11T01:01:04.668Z,10.50
2023-05-11T01:03:34.075Z,10.50
2023-05-11T01:06:42.342Z,10.50
2023-05-11T01:09:32.222Z,10.60
2023-05-11T01:12:34.235Z,10.60
2023-05-11T01:15:15.987Z,10.60
2023-05-11T01:18:00.029Z,10.60
2023-05-11T01:20:30.631Z,10.60
2023-05-11T01:23:47.905Z,10.60
2023-05-11T01:26:55.402Z,10.60
2023-05-11T01:30:30.632Z,10.60
2023-05-11T01:33:08.117Z,10.60
2023-05-11T01:35:48.328Z,10.50
2023-05-11T01:38:19.597Z,10.50
2023-05-11T01:40:56.595Z,10.50
2023-05-11T01:43:28.782Z,10.50
2023-05-11T01:46:01.334Z,10.50
2023-05-11T01:48:33.777Z,10.50
2023-05-11T01:51:03.667Z,10.40
2023-05-11T01:53:37.590Z,10.40
2023-05-11T01:56:06.489Z,10.40
2023-05-11T01:58:37.268Z,10.40
2023-05-11T02:01:06.587Z,10.40
2023-05-11T02:03:36.903Z,10.40
2023-05-11T02:06:11.510Z,10.40
2023-05-11T02:08:41.254Z,10.40
2023-05-11T02:11:10.752Z,10.40
2023-05-11T02:13:42.803Z,10.40
2023-05-11T02:16:11.537Z,10.30
2023-05-11T02:18:43.107Z,10.30
2023-05-11T02:21:11.773Z,10.30
2023-05-11T02:23:41.908Z,10.30
2023-05-11T02:26:12.313Z,10.30
2023-05-11T02:31:30.738Z,10.30
2023-05-11T02:34:18.935Z,10.30
2023-05-11T02:36:49.412Z,10.30
2023-05-11T02:39:24.032Z,10.30
2023-05-11T02:41:58.623Z,10.30
2023-05-11T02:44:32.442Z,10.30
2023-05-11T02:47:03.723Z,10.30
2023-05-11T02:49:36.217Z,10.30
2023-05-11T02:52:08.889Z,10.30
2023-05-11T02:54:43.604Z,10.30
2023-05-11T02:57:11.475Z,10.30
2023-05-11T03:07:02.854Z,10.30
2023-05-11T03:12:00.770Z,10.30
2023-05-11T03:14:27.965Z,10.30
2023-05-11T03:17:00.683Z,10.30
2023-05-11T03:19:29.282Z,10.30
2023-05-11T03:21:59.876Z,10.30
2023-05-11T03:26:57.497Z,10.30
2023-05-11T03:29:29.587Z,10.30
2023-05-11T03:31:56.675Z,10.30
2023-05-11T03:34:24.894Z,10.40
2023-05-11T03:36:54.359Z,10.30
2023-05-11T03:39:23.864Z,10.30
2023-05-11T03:41:53.451Z,10.30
2023-05-11T03:44:22.620Z,10.30
2023-05-11T03:59:16.433Z,10.20
2023-05-11T04:01:44.555Z,10.20
2023-05-11T04:04:11.964Z,10.10
2023-05-11T04:06:39.170Z,10.10
2023-05-11T04:33:48.729Z,10.10
2023-05-11T04:46:10.799Z,10.20
2023-05-11T04:53:36.707Z,10.30
2023-05-11T04:58:31.545Z,10.40
2023-05-11T05:00:58.614Z,10.40
2023-05-11T05:03:31.051Z,10.40
2023-05-11T05:08:26.509Z,10.50
2023-05-11T05:13:21.409Z,10.60
2023-05-11T05:15:48.458Z,10.50
2023-05-11T05:30:41.009Z,10.50
2023-05-11T05:33:34.874Z,10.40
2023-05-11T05:38:29.884Z,10.40
2023-05-11T05:40:57.955Z,10.40
2023-05-11T05:45:54.626Z,10.40
2023-05-11T05:50:55.459Z,10.40
2023-05-11T05:55:50.145Z,10.30
2023-05-11T06:00:44.931Z,10.20
2023-05-11T06:08:10.528Z,10.30
2023-05-11T06:13:09.134Z,10.40
2023-05-11T06:18:12.797Z,10.40
2023-05-11T06:23:09.275Z,10.40
2023-05-11T06:25:39.585Z,10.40
2023-05-11T06:35:37.569Z,10.40
2023-05-11T06:38:06.866Z,10.40
2023-05-11T06:45:46.740Z,10.30
2023-05-11T06:50:42.198Z,10.30
2023-05-11T07:07:58.624Z,10.40
2023-05-11T07:10:26.094Z,10.40
2023-05-11T07:15:20.786Z,10.60
2023-05-11T07:20:15.726Z,10.70
2023-05-11T07:22:42.874Z,10.70
2023-05-11T07:27:37.653Z,10.50
2023-05-11T07:30:06.105Z,10.50
2023-05-11T07:35:00.839Z,10.50
2023-05-11T07:49:48.524Z,10.50
2023-05-11T07:52:15.756Z,10.50
2023-05-11T08:20:56.969Z,10.70
2023-05-11T08:23:23.968Z,10.70
2023-05-11T08:25:56.020Z,10.60
2023-05-11T08:28:23.314Z,10.70
2023-05-11T08:30:58.406Z,10.70
2023-05-11T08:33:37.356Z,10.70
2023-05-11T08:36:07.304Z,10.70
2023-05-11T08:38:36.505Z,10.70
2023-05-11T08:41:04.816Z,10.80
2023-05-11T08:43:36.148Z,10.70
2023-05-11T08:46:08.753Z,10.70
2023-05-11T08:48:36.239Z,10.80
2023-05-11T08:51:04.248Z,10.70
2023-05-11T08:58:30.827Z,10.80
2023-05-11T09:03:30.612Z,10.80
2023-05-11T09:05:59.636Z,10.90
2023-05-11T09:08:31.680Z,11.00
2023-05-11T09:10:59.949Z,11.00
2023-05-11T09:15:54.894Z,11.10
2023-05-11T09:18:21.919Z,11.20
2023-05-11T09:20:53.482Z,11.30
2023-05-11T09:23:26.707Z,11.30
2023-05-11T09:25:54.576Z,11.50
2023-05-11T09:28:25.917Z,11.50
2023-05-11T09:30:54.210Z,11.60
2023-05-11T09:33:26.127Z,11.60
2023-05-11T09:35:53.677Z,11.40
2023-05-11T09:38:22.885Z,11.40
2023-05-11T09:40:55.781Z,11.40
2023-05-11T09:43:30.507Z,11.40
2023-05-11T09:46:04.844Z,11.40
2023-05-11T09:48:33.848Z,11.30
2023-05-11T09:51:07.092Z,11.20
2023-05-11T09:53:46.043Z,11.20
2023-05-11T09:58:57.067Z,11.40
2023-05-11T10:01:33.453Z,11.60
2023-05-11T10:04:09.504Z,11.70
2023-05-11T10:06:53.678Z,11.70
2023-05-11T10:09:25.429Z,11.70
2023-05-11T10:11:55.540Z,11.60
2023-05-11T10:14:24.705Z,11.50
2023-05-11T10:16:53.537Z,11.40
2023-05-11T10:21:49.515Z,11.20
2023-05-11T10:31:48.257Z,11.30
2023-05-11T10:36:46.560Z,11.30
2023-05-11T10:42:41.915Z,11.30
2023-05-11T10:45:40.610Z,11.50
2023-05-11T10:49:04.622Z,11.40
2023-05-11T10:55:25.871Z,11.60
2023-05-11T10:58:06.269Z,11.60
2023-05-11T11:00:53.755Z,11.50
2023-05-11T11:03:20.857Z,11.40
2023-05-11T11:05:48.220Z,11.50
2023-05-11T11:10:46.170Z,11.20
2023-05-11T11:13:16.663Z,11.20
2023-05-11T11:15:56.078Z,11.20
2023-05-11T11:18:35.400Z,11.20
2023-05-11T11:23:43.965Z,11.10
2023-05-11T11:26:17.094Z,11.10
2023-05-11T11:29:02.283Z,11.10
2023-05-11T11:31:32.673Z,11.20
2023-05-11T11:34:25.124Z,11.20
2023-05-11T11:36:58.632Z,11.40
2023-05-11T11:39:41.068Z,11.50
2023-05-11T11:42:31.137Z,11.70
2023-05-11T11:45:33.422Z,11.70
2023-05-11T11:48:13.811Z,11.80
2023-05-11T11:50:47.792Z,11.90
2023-05-11T11:53:37.878Z,11.90
2023-05-11T11:56:15.981Z,11.90
2023-05-11T12:01:22.571Z,11.80
2023-05-11T12:04:20.457Z,11.60
2023-05-11T12:06:58.070Z,11.70
2023-05-11T12:09:27.262Z,11.70
2023-05-11T12:11:55.008Z,11.80
2023-05-11T12:14:22.840Z,11.60
2023-05-11T12:17:08.244Z,11.70
2023-05-11T12:19:35.422Z,11.70
2023-05-11T12:22:02.563Z,11.80
2023-05-11T12:24:29.840Z,11.90
2023-05-11T12:26:57.406Z,11.90
2023-05-11T12:34:25.284Z,11.70
2023-05-11T12:36:54.971Z,11.70
2023-05-11T12:39:26.350Z,11.70
2023-05-11T12:41:56.217Z,11.70
2023-05-11T12:44:26.602Z,11.90
2023-05-11T12:49:26.816Z,11.90
2023-05-11T12:52:10.460Z,12.00
2023-05-11T12:54:43.310Z,12.10
2023-05-11T12:57:27.348Z,12.10
2023-05-11T13:00:18.093Z,12.10
2023-05-11T13:02:52.429Z,12.20
2023-05-11T13:05:26.636Z,12.10
2023-05-11T13:08:05.699Z,12.00
2023-05-11T13:10:32.812Z,11.90
2023-05-11T13:15:28.453Z,12.10
2023-05-11T13:18:02.479Z,12.10
2023-05-11T13:20:33.547Z,12.00
2023-05-11T13:23:15.737Z,12.00
2023-05-11T13:25:48.749Z,12.10
2023-05-11T13:28:19.495Z,12.10
2023-05-11T13:30:47.574Z,12.00
2023-05-11T13:33:14.898Z,12.10
2023-05-11T13:35:43.781Z,12.10
2023-05-11T13:40:39.643Z,12.00
2023-05-11T13:50:31.988Z,11.80
2023-05-11T13:52:58.972Z,11.80
2023-05-11T13:55:26.043Z,11.80
2023-05-11T14:00:20.759Z,11.70
2023-05-11T14:02:50.294Z,11.60
2023-05-11T14:05:18.155Z,11.60
2023-05-11T14:07:48.408Z,11.60
2023-05-11T14:10:17.390Z,11.60
2023-05-11T14:12:45.377Z,11.60
2023-05-11T14:17:43.051Z,11.70
2023-05-11T14:20:13.054Z,11.80
2023-05-11T14:22:41.397Z,11.90
2023-05-11T14:27:36.527Z,12.00
2023-05-11T14:34:59.024Z,11.90
2023-05-11T14:39:53.629Z,11.80
2023-05-11T14:42:20.647Z,11.80
2023-05-11T14:44:47.672Z,11.80
2023-05-11T14:47:15.464Z,11.80
2023-05-11T14:49:42.382Z,11.80
2023-05-11T14:52:10.530Z,11.80
2023-05-11T14:54:37.516Z,11.80
2023-05-11T14:57:06.000Z,11.80
2023-05-11T14:59:33.013Z,11.70
2023-05-11T15:04:27.728Z,11.60
2023-05-11T15:06:55.962Z,11.50
2023-05-11T15:14:18.386Z,11.40
2023-05-11T15:19:13.928Z,11.30
2023-05-11T15:24:10.772Z,11.20
2023-05-11T15:26:38.496Z,11.20
2023-05-11T15:31:33.273Z,11.10
2023-05-11T15:34:01.134Z,11.00
2023-05-11T15:36:29.898Z,11.10
2023-05-11T15:38:57.370Z,11.10
2023-05-11T15:43:53.348Z,10.90
2023-05-11T15:46:20.592Z,10.80
2023-05-11T15:51:15.518Z,10.80
2023-05-11T15:53:42.531Z,10.70
2023-05-11T15:56:10.530Z,10.80
2023-05-11T15:58:37.649Z,10.90
2023-05-11T16:06:00.699Z,11.10
2023-05-11T16:13:23.130Z,11.20
2023-05-11T16:23:14.724Z,11.10
2023-05-11T16:25:41.794Z,11.10
2023-05-11T16:28:08.944Z,11.10
2023-05-11T16:30:37.315Z,11.20
2023-05-11T16:35:31.929Z,11.10
2023-05-11T16:38:00.098Z,11.00
2023-05-11T16:40:28.134Z,11.00
2023-05-11T16:42:55.150Z,11.00
2023-05-11T16:50:18.180Z,10.90
2023-05-11T16:52:45.529Z,10.80
2023-05-11T16:55:13.100Z,10.80
2023-05-11T17:00:09.926Z,10.80
2023-05-11T17:02:37.239Z,10.80
2023-05-11T17:05:06.533Z,10.70
2023-05-11T17:10:01.119Z,10.70
2023-05-11T17:12:29.821Z,10.70
2023-05-11T17:14:57.473Z,10.70
2023-05-11T17:19:52.200Z,10.60
2023-05-11T17:22:19.243Z,10.60
2023-05-11T17:27:14.168Z,10.50
2023-05-11T17:29:43.607Z,10.50
2023-05-11T17:34:38.500Z,10.50
2023-05-11T17:37:05.649Z,10.50
2023-05-11T17:39:34.226Z,10.50
2023-05-11T17:46:56.580Z,10.40
2023-05-11T17:49:23.638Z,10.40
2023-05-11T17:51:50.700Z,10.40
2023-05-11T17:54:17.801Z,10.40
2023-05-11T17:59:12.540Z,10.40
2023-05-11T18:06:36.688Z,10.40
2023-05-11T18:14:01.590Z,10.20
2023-05-11T18:28:49.622Z,10.20
2023-05-11T18:31:18.861Z,10.20
2023-05-11T18:33:46.623Z,10.20
2023-05-11T18:38:43.328Z,10.10
2023-05-11T18:41:10.486Z,10.10
2023-05-11T18:43:37.815Z,10.10
2023-05-11T18:46:08.970Z,10.10
2023-05-11T18:48:37.204Z,10.00
2023-05-11T18:51:04.481Z,10.10
2023-05-11T18:53:32.405Z,10.10
2023-05-11T18:58:26.921Z,10.10
2023-05-11T19:03:22.366Z,10.00
2023-05-11T19:10:47.712Z,10.00
2023-05-11T19:15:42.585Z,10.00
2023-05-11T19:18:09.806Z,10.00
2023-05-11T19:20:39.451Z,10.00
2023-05-11T19:23:06.669Z,10.00
2023-05-11T19:28:01.620Z,10.00
2023-05-11T19:35:24.069Z,10.00
2023-05-11T19:37:51.130Z,10.00
2023-05-11T19:40:44.660Z,10.00
2023-05-11T19:43:08.452Z,10.00
2023-05-11T19:45:37.273Z,10.00
2023-05-11T19:48:04.921Z,10.00
2023-05-11T19:50:32.052Z,10.00
2023-05-11T19:52:59.147Z,10.00
2023-05-11T19:55:26.336Z,10.00
2023-05-11T19:57:53.511Z,10.00
2023-05-11T20:00:24.951Z,10.00
2023-05-11T20:05:21.463Z,9.90
2023-05-11T20:07:48.633Z,9.90
2023-05-11T20:10:16.106Z,9.90
2023-05-11T20:12:43.235Z,9.90
2023-05-11T20:17:39.429Z,9.90
2023-05-11T20:20:08.613Z,9.90
2023-05-11T20:22:37.429Z,9.90
2023-05-11T20:25:11.658Z,9.80
2023-05-11T20:27:44.921Z,9.80
2023-05-11T20:35:27.993Z,9.80
2023-05-11T20:37:55.390Z,9.80
2023-05-11T20:40:22.532Z,9.80
2023-05-11T20:42:49.500Z,9.80
2023-05-11T20:45:16.739Z,9.80
2023-05-11T20:47:43.737Z,9.70
2023-05-11T20:50:12.009Z,9.80
2023-05-11T20:52:39.413Z,9.80
2023-05-11T20:55:08.176Z,9.80
2023-05-11T20:57:35.288Z,9.80
2023-05-11T21:00:04.409Z,9.90
2023-05-11T21:02:31.972Z,9.90
2023-05-11T21:07:29.983Z,9.90
2023-05-11T21:09:57.152Z,9.80
2023-05-11T21:12:24.220Z,9.80
2023-05-11T21:17:18.838Z,9.80
2023-05-11T21:19:46.457Z,9.90
2023-05-11T21:22:13.601Z,9.90
2023-05-11T21:24:41.039Z,9.90
2023-05-11T21:27:08.104Z,9.90
2023-05-11T21:29:35.940Z,9.90
2023-05-11T21:32:03.049Z,9.90
2023-05-11T21:34:30.006Z,9.90
2023-05-11T21:39:24.945Z,9.90
2023-05-11T21:44:20.512Z,9.90
2023-05-11T21:46:47.513Z,9.90
2023-05-11T21:56:37.160Z,9.90
2023-05-11T22:01:31.668Z,9.90
2023-05-11T22:06:28.245Z,9.90
2023-05-11T22:08:55.411Z,9.80
2023-05-11T22:13:49.875Z,9.80
2023-05-11T22:21:12.261Z,9.70
2023-05-11T22:26:06.691Z,9.80
2023-05-11T22:28:33.795Z,9.80
2023-05-11T22:33:28.669Z,9.80
2023-05-11T22:38:23.143Z,9.80
2023-05-11T22:40:50.263Z,9.80
2023-05-11T22:45:44.788Z,9.80
2023-05-11T22:50:46.545Z,9.80
2023-05-11T22:53:19.039Z,9.80
2023-05-11T23:00:41.188Z,9.80
2023-05-11T23:05:37.058Z,9.80
2023-05-11T23:08:04.101Z,9.80
2023-05-11T23:10:31.109Z,9.80
2023-05-11T23:25:16.185Z,9.70
2023-05-11T23:35:07.648Z,9.70
2023-05-11T23:37:34.675Z,9.70
2023-05-11T23:47:26.994Z,9.60
2023-05-11T23:54:55.125Z,9.60
